Time;durP1;ratioP1;P1;durP2;ratioP2;P2;SDS_P1;SDS_P2;PMS_P1;PMS_P2;Temp;Humidity;BMP_temperature;BMP_pressure;BME280_temperature;BME280_humidity;BME280_pressure;Samples;Min_cycle;Max_cycle;Signal;HPM_P1;HPM_P2
2021/03/22 00:00:43;;;;;;;3.40;1.92;;;;;;;1.87;90.00;92651.97;4930320;28;20122;-90
2021/03/22 00:03:10;;;;;;;2.40;1.90;;;;;;;1.99;90.06;92649.88;4929887;28;20043;-90
2021/03/22 00:05:36;;;;;;;5.90;2.47;;;;;;;1.70;90.19;92630.63;4934416;28;20521;-90
2021/03/22 00:08:03;;;;;;;6.05;3.17;;;;;;;1.84;90.03;92657.69;4929497;28;20070;-90
2021/03/22 00:10:31;;;;;;;2.72;2.40;;;;;;;1.86;90.15;92629.56;4933305;28;20032;-90
2021/03/22 00:12:57;;;;;;;6.03;3.60;;;;;;;1.86;89.85;92624.34;4934511;28;20058;-90
2021/03/22 00:15:24;;;;;;;6.40;3.80;;;;;;;1.68;89.85;92588.44;4919883;28;20142;-90
2021/03/22 00:17:51;;;;;;;4.45;3.75;;;;;;;1.92;90.02;92620.69;4924224;28;20034;-89
2021/03/22 00:20:18;;;;;;;5.38;3.95;;;;;;;1.79;90.14;92608.22;4920811;28;20046;-90
2021/03/22 00:22:45;;;;;;;6.20;4.55;;;;;;;1.84;90.24;92625.66;4919231;28;20043;-88
2021/03/22 00:25:11;;;;;;;12.00;6.00;;;;;;;1.51;90.50;92582.75;4920591;28;20414;-87
2021/03/22 00:27:37;;;;;;;8.88;7.00;;;;;;;1.65;90.21;92591.56;4934323;28;20058;-90
2021/03/22 00:30:06;;;;;;;11.13;6.43;;;;;;;1.83;90.28;92621.50;4917886;28;20807;-89
2021/03/22 00:32:32;;;;;;;12.02;6.88;;;;;;;1.85;90.45;92616.81;4926308;28;20534;-88
2021/03/22 00:34:58;;;;;;;10.90;7.72;;;;;;;1.69;90.36;92587.41;4923681;28;20050;-83
2021/03/22 00:37:23;;;;;;;9.65;7.35;;;;;;;1.64;90.24;92592.63;4918519;28;20730;-89
2021/03/22 00:39:49;;;;;;;12.88;8.80;;;;;;;1.87;90.46;92618.09;4922508;28;20083;-87
2021/03/22 00:42:14;;;;;;;13.88;8.48;;;;;;;1.67;90.10;92579.06;4927734;28;20121;-86
2021/03/22 00:44:40;;;;;;;13.45;8.63;;;;;;;1.85;90.40;92616.81;4943869;28;20047;-89
2021/03/22 00:47:06;;;;;;;10.70;6.90;;;;;;;1.87;90.29;92610.28;4944903;28;20493;-91
2021/03/22 00:49:31;;;;;;;9.90;6.65;;;;;;;1.77;90.20;92609.50;4924663;28;21057;-86
2021/03/22 00:51:57;;;;;;;5.72;5.05;;;;;;;1.78;90.31;92611.88;4900935;28;20047;-89
2021/03/22 00:54:23;;;;;;;7.35;5.18;;;;;;;1.73;90.25;92591.03;4935098;28;20506;-90
2021/03/22 00:56:48;;;;;;;5.43;4.43;;;;;;;1.79;90.12;92603.00;4948608;28;20051;-86
2021/03/22 00:59:17;;;;;;;7.47;4.50;;;;;;;1.83;90.08;92598.84;4967625;28;20570;-89
2021/03/22 01:01:46;;;;;;;5.13;3.70;;;;;;;1.51;89.99;92538.50;4926393;28;20069;-90
2021/03/22 01:04:13;;;;;;;4.63;3.55;;;;;;;1.84;89.87;92586.59;4917218;28;20522;-88
2021/03/22 01:06:39;;;;;;;4.65;3.80;;;;;;;1.82;89.88;92581.63;4942310;28;20137;-89
2021/03/22 01:09:08;;;;;;;4.05;3.60;;;;;;;1.86;89.60;92577.47;4929021;28;20049;-89
2021/03/22 01:11:34;;;;;;;5.78;4.28;;;;;;;1.86;89.47;92587.88;4950131;28;20031;-90
2021/03/22 01:14:00;;;;;;;3.63;3.22;;;;;;;1.89;89.52;92571.72;4944152;28;20045;-87
2021/03/22 01:16:37;;;;;;;5.10;3.90;;;;;;;1.85;89.25;92554.28;4953173;28;20496;-90
2021/03/22 01:19:10;;;;;;;7.00;3.97;;;;;;;1.91;89.06;92556.59;4938659;28;20432;-90
2021/03/22 01:21:45;;;;;;;7.57;3.72;;;;;;;1.99;88.77;92555.28;4955285;28;20047;-89
2021/03/22 01:24:11;;;;;;;;;;;;;;;2.01;88.89;92567.00;4953576;28;20611;-90
2021/03/22 01:26:38;;;;;;;4.28;3.40;;;;;;;1.98;88.99;92548.50;4971726;28;19914;-88
2021/03/22 01:29:15;;;;;;;4.80;3.05;;;;;;;1.99;89.20;92550.09;4953071;28;20082;-89
2021/03/22 01:31:45;;;;;;;4.40;3.58;;;;;;;2.00;88.83;92552.44;4936648;28;20363;-89
2021/03/22 01:34:11;;;;;;;5.65;3.90;;;;;;;2.05;88.91;92554.25;4933207;28;20074;-87
2021/03/22 01:36:37;;;;;;;4.95;3.75;;;;;;;2.14;88.51;92558.63;4952762;28;20126;-89
2021/03/22 01:39:15;;;;;;;3.55;3.25;;;;;;;2.06;87.97;92564.38;4954542;28;20047;-87
2021/03/22 01:42:18;;;;;;;3.55;3.25;;;;;;;1.95;88.19;92557.66;4943971;28;20055;-88
2021/03/22 01:44:49;;;;;;;3.47;3.13;;;;;;;1.65;88.19;92516.06;4954438;28;20492;-88
2021/03/22 01:47:18;;;;;;;3.25;2.95;;;;;;;1.93;88.58;92549.31;4940136;28;20085;-88
2021/03/22 01:50:04;;;;;;;3.28;2.95;;;;;;;1.97;88.66;92537.31;4933726;28;20055;-89
2021/03/22 01:52:31;;;;;;;3.10;2.80;;;;;;;1.98;88.97;92535.50;4941126;28;20039;-87
2021/03/22 01:54:58;;;;;;;3.20;3.00;;;;;;;1.88;88.93;92523.28;4934618;28;20358;-90
2021/03/22 01:57:36;;;;;;;3.10;2.75;;;;;;;2.00;88.80;92528.97;4930902;28;20107;-88
2021/03/22 02:00:26;;;;;;;5.72;3.30;;;;;;;1.98;88.95;92512.81;4934126;28;20056;-89
2021/03/22 19:04:04;;;;;;;3.20;2.92;;;;;;;2.68;69.65;92974.41;4988828;23;20045;-83
2021/03/22 19:06:30;;;;;;;5.97;4.82;;;;;;;2.76;70.56;92977.25;4965011;28;20053;-84
2021/03/22 19:08:55;;;;;;;4.07;3.67;;;;;;;2.89;69.08;92975.97;4984663;28;20030;-81
2021/03/22 19:11:24;;;;;;;4.00;3.60;;;;;;;2.96;68.93;93005.97;4984378;28;20018;-83
2021/03/22 19:13:50;;;;;;;3.28;2.88;;;;;;;2.91;69.74;93011.19;4960857;28;20057;-84
2021/03/22 19:16:19;;;;;;;2.88;2.60;;;;;;;3.11;70.18;93038.34;4953270;28;20434;-83
2021/03/22 19:18:48;;;;;;;4.32;4.00;;;;;;;3.11;70.00;93040.97;4949890;28;20035;-83
2021/03/22 19:21:16;;;;;;;5.57;4.97;;;;;;;3.00;71.49;93035.72;4934320;28;20369;-83
2021/03/22 19:23:46;;;;;;;5.35;4.78;;;;;;;2.95;71.98;93048.78;4965972;28;20048;-83
2021/03/22 19:26:18;;;;;;;5.25;4.60;;;;;;;2.81;73.25;93045.09;4956953;28;20057;-83
2021/03/22 19:28:43;;;;;;;5.40;4.13;;;;;;;2.68;73.27;93016.91;4977366;28;20081;-84
2021/03/22 19:31:19;;;;;;;7.70;5.80;;;;;;;2.44;73.73;92987.16;4987370;28;20173;-83
2021/03/22 19:33:47;;;;;;;5.53;5.03;;;;;;;2.57;74.15;93010.91;4948610;28;20042;-83
2021/03/22 19:36:12;;;;;;;7.07;5.35;;;;;;;2.80;74.63;93056.59;4978558;28;20128;-83
2021/03/22 19:38:40;;;;;;;5.50;4.95;;;;;;;2.87;74.94;93062.34;4989048;28;20543;-83
2021/03/22 19:41:08;;;;;;;9.73;6.00;;;;;;;2.66;73.98;93005.94;4918232;28;20042;-83
2021/03/22 19:43:36;;;;;;;7.63;6.15;;;;;;;2.74;73.65;93015.88;4973856;28;20124;-82
2021/03/22 19:46:02;;;;;;;10.45;8.15;;;;;;;2.47;74.51;93007.47;4973146;28;20038;-83
2021/03/22 19:48:28;;;;;;;7.32;6.10;;;;;;;2.45;75.67;93006.94;4988772;28;20186;-83
2021/03/22 19:50:54;;;;;;;9.15;6.78;;;;;;;3.01;74.84;93063.41;4977323;28;21003;-83
2021/03/22 19:53:30;;;;;;;11.93;9.38;;;;;;;2.97;74.37;93051.91;4990900;28;20104;-83
2021/03/22 19:55:59;;;;;;;8.60;6.80;;;;;;;3.04;73.53;93062.88;4987705;28;20042;-82
2021/03/22 19:58:24;;;;;;;10.10;7.88;;;;;;;2.93;74.22;93058.69;4989504;28;20034;-82
2021/03/22 20:00:52;;;;;;;10.05;7.72;;;;;;;3.01;74.41;93073.84;4986660;28;20052;-83
2021/03/22 20:03:22;;;;;;;9.70;6.70;;;;;;;3.04;74.58;93067.31;4981544;28;20041;-84
2021/03/22 20:05:48;;;;;;;16.30;9.95;;;;;;;2.70;75.47;93053.94;4988032;28;20050;-83
2021/03/22 20:08:17;;;;;;;20.75;9.88;;;;;;;2.47;76.40;93067.47;4994510;28;20521;-83
2021/03/22 20:10:50;;;;;;;23.42;13.43;;;;;;;2.46;77.10;93076.31;4968633;28;20080;-83
2021/03/22 20:13:20;;;;;;;24.50;15.07;;;;;;;2.16;77.58;93025.63;4989016;28;20567;-83
2021/03/22 20:15:49;;;;;;;21.42;12.65;;;;;;;2.13;77.76;93025.38;4976691;28;20443;-83
2021/03/22 20:18:19;;;;;;;23.42;11.80;;;;;;;2.21;78.24;93060.56;4968837;28;20522;-82
2021/03/22 20:20:44;;;;;;;15.75;11.40;;;;;;;1.86;78.49;93022.91;4986955;28;20041;-83
2021/03/22 20:23:16;;;;;;;23.90;13.90;;;;;;;2.17;78.57;93068.91;4990255;28;20029;-83
2021/03/22 20:25:43;;;;;;;26.13;13.68;;;;;;;2.18;78.99;93072.31;4974348;28;20057;-83
2021/03/22 20:28:18;;;;;;;29.85;18.42;;;;;;;1.86;79.61;93029.97;4971216;28;20140;-83
2021/03/22 20:30:46;;;;;;;29.50;19.30;;;;;;;2.15;79.71;93078.03;4964517;28;21881;-82
2021/03/22 20:33:16;;;;;;;25.70;17.65;;;;;;;2.06;80.06;93093.34;4987914;28;20072;-83
2021/03/22 20:35:42;;;;;;;19.20;13.43;;;;;;;1.70;80.12;93037.69;4994044;28;20112;-82
2021/03/22 20:38:09;;;;;;;17.70;13.82;;;;;;;1.89;79.99;93038.03;4984507;28;20052;-83
2021/03/22 20:40:37;;;;;;;25.73;17.40;;;;;;;1.98;79.90;93067.78;4992760;28;20038;-82
2021/03/22 20:43:04;;;;;;;26.80;16.50;;;;;;;2.21;80.12;93092.63;4963513;28;20042;-82
2021/03/22 20:45:31;;;;;;;29.48;17.73;;;;;;;2.28;80.15;93097.63;4983187;28;20046;-83
2021/03/22 20:47:57;;;;;;;29.50;18.60;;;;;;;2.31;80.27;93094.50;4985308;28;20038;-82
2021/03/22 20:50:28;;;;;;;35.33;21.27;;;;;;;2.34;79.86;93099.22;4987487;28;20022;-83
2021/03/22 20:52:58;;;;;;;30.63;19.65;;;;;;;2.18;79.74;93067.09;4987194;28;20645;-82
2021/03/22 20:55:26;;;;;;;28.63;18.15;;;;;;;2.32;79.85;93096.09;4973423;28;20045;-82
2021/03/22 20:57:52;;;;;;;23.75;15.48;;;;;;;2.31;79.81;93104.94;4990530;28;20066;-83
2021/03/22 21:00:27;;;;;;;21.58;14.50;;;;;;;2.13;80.53;93104.34;4970249;28;20041;-82
2021/03/22 21:02:56;;;;;;;16.65;11.50;;;;;;;2.00;80.71;93086.56;4980905;28;20053;-83
2021/03/22 21:05:24;;;;;;;14.20;10.40;;;;;;;1.70;80.51;93049.94;4977179;28;20099;-83
2021/03/22 21:07:50;;;;;;;14.80;10.43;;;;;;;1.91;80.84;93100.28;4974063;28;20924;-81
2021/03/22 21:10:27;;;;;;;11.63;9.32;;;;;;;2.01;81.13;93106.34;4993206;28;20566;-83
2021/03/22 21:12:56;;;;;;;32.08;14.52;;;;;;;2.13;81.11;93114.78;4976373;28;20472;-82
2021/03/22 21:15:24;;;;;;;22.63;13.98;;;;;;;2.05;81.04;93101.44;4986801;28;20125;-83
2021/03/22 21:17:51;;;;;;;21.42;11.75;;;;;;;2.16;80.81;93114.25;4988961;28;20152;-83
2021/03/22 21:20:36;;;;;;;15.52;11.75;;;;;;;2.11;80.93;93118.66;4994559;28;20050;-82
2021/03/22 21:23:03;;;;;;;15.55;11.20;;;;;;;2.10;81.06;93125.69;4977474;28;20761;-83
2021/03/22 21:25:31;;;;;;;13.05;10.35;;;;;;;2.07;81.04;93125.41;4970564;28;20837;-82
2021/03/22 21:28:04;;;;;;;13.27;10.00;;;;;;;1.92;81.06;93109.69;4990994;28;20129;-82
2021/03/22 21:30:30;;;;;;;13.57;11.27;;;;;;;1.95;81.29;93112.59;4994148;28;20037;-82
2021/03/22 21:32:57;;;;;;;18.02;12.48;;;;;;;2.00;81.06;93096.19;4980661;28;20038;-83
2021/03/22 21:35:30;;;;;;;20.58;15.90;;;;;;;2.11;81.27;93114.22;4977915;28;20029;-82
2021/03/22 21:37:57;;;;;;;18.45;12.98;;;;;;;2.10;80.94;93109.28;4971344;28;20132;-83
2021/03/22 21:40:25;;;;;;;24.65;18.13;;;;;;;2.20;80.70;93098.13;4995470;28;20108;-82
2021/03/22 21:42:54;;;;;;;31.35;19.00;;;;;;;2.29;80.57;93122.66;4990175;28;20065;-82
2021/03/22 21:45:24;;;;;;;41.75;22.52;;;;;;;2.34;80.41;93120.09;4993293;28;20034;-82
2021/03/22 21:47:55;;;;;;;75.82;31.05;;;;;;;2.38;80.24;93136.78;4995861;28;20033;-82
2021/03/22 21:50:24;;;;;;;29.30;15.30;;;;;;;2.38;80.02;93119.31;4997659;28;20111;-82
2021/03/22 21:52:50;;;;;;;35.60;20.00;;;;;;;2.36;79.90;93133.63;4991517;28;20427;-82
2021/03/22 21:55:17;;;;;;;16.30;12.43;;;;;;;2.11;80.21;93111.63;4997904;28;20037;-82
2021/03/22 21:57:52;;;;;;;21.20;13.35;;;;;;;2.22;80.43;93132.53;4993749;28;20136;-82
2021/03/22 22:00:19;;;;;;;15.32;11.75;;;;;;;2.09;80.58;93129.34;4992762;28;20037;-82
2021/03/22 22:02:45;;;;;;;17.58;13.18;;;;;;;2.36;79.73;93133.63;4993416;28;20033;-82
2021/03/22 22:05:13;;;;;;;15.40;10.85;;;;;;;2.21;79.30;93100.47;4992424;28;20068;-82
2021/03/22 22:07:39;;;;;;;11.40;8.20;;;;;;;2.52;78.83;93137.88;4995593;28;20393;-81
2021/03/22 22:10:07;;;;;;;18.20;12.77;;;;;;;2.37;78.86;93111.75;4990153;28;20040;-82
2021/03/22 22:12:32;;;;;;;13.52;10.45;;;;;;;2.56;79.01;93144.16;4991908;28;20081;-82
2021/03/22 22:14:58;;;;;;;16.65;13.43;;;;;;;2.63;78.70;93146.53;4993428;28;20072;-82
2021/03/22 22:17:24;;;;;;;15.95;11.77;;;;;;;2.78;78.63;93150.00;4996045;28;20100;-82
2021/03/22 22:19:49;;;;;;;16.00;10.88;;;;;;;2.84;78.34;93156.78;4994527;28;20046;-82
2021/03/22 22:22:15;;;;;;;14.18;11.02;;;;;;;2.79;77.47;93154.16;4977636;28;20034;-82
2021/03/22 22:24:45;;;;;;;11.90;9.00;;;;;;;2.98;74.54;93152.63;4970480;28;20526;-82
2021/03/22 22:27:11;;;;;;;11.32;7.90;;;;;;;2.96;75.04;93159.97;4997066;28;20371;-82
2021/03/22 22:29:37;;;;;;;2.65;2.45;;;;;;;2.68;73.08;93136.91;4979326;28;20068;-82
2021/03/22 22:32:04;;;;;;;3.60;3.30;;;;;;;2.84;72.31;93151.56;4989738;28;20121;-82
2021/03/22 22:34:29;;;;;;;4.50;4.10;;;;;;;2.96;73.36;93170.41;4986355;28;20137;-82
2021/03/22 22:36:55;;;;;;;5.75;4.28;;;;;;;3.03;72.86;93163.09;4990659;28;20059;-82
2021/03/22 22:39:23;;;;;;;3.90;3.60;;;;;;;3.06;73.30;93169.66;4991504;28;20092;-82
2021/03/22 22:41:50;;;;;;;2.92;2.63;;;;;;;2.95;72.55;93168.03;4989196;28;20120;-82
2021/03/22 22:44:18;;;;;;;4.53;3.85;;;;;;;3.04;72.02;93174.31;4994892;28;20018;-82
2021/03/22 22:46:44;;;;;;;3.90;3.60;;;;;;;3.17;72.74;93168.63;4995727;28;20456;-82
2021/03/22 22:49:09;;;;;;;3.42;3.13;;;;;;;3.21;72.25;93179.34;4991357;28;20049;-81
2021/03/22 22:51:35;;;;;;;14.80;5.15;;;;;;;3.11;72.34;93187.16;4976849;28;25399;-81
2021/03/22 22:54:01;;;;;;;4.15;3.75;;;;;;;3.20;74.43;93186.38;4985165;28;20033;-82
2021/03/22 22:56:26;;;;;;;3.92;3.63;;;;;;;3.25;74.79;93177.78;4994043;28;20053;-81
2021/03/22 22:58:52;;;;;;;3.08;2.75;;;;;;;3.29;73.82;93168.38;4973777;28;20030;-81
2021/03/22 23:01:17;;;;;;;3.38;3.08;;;;;;;3.38;73.17;93187.72;4992515;28;20045;-82
2021/03/22 23:03:43;;;;;;;4.60;4.00;;;;;;;3.33;73.50;93188.50;4992633;28;20383;-81
2021/03/22 23:06:09;;;;;;;4.13;3.38;;;;;;;3.34;72.88;93181.44;4985505;28;20686;-82
2021/03/22 23:08:36;;;;;;;4.97;4.20;;;;;;;3.41;72.63;93185.38;4975704;28;20026;-82
2021/03/22 23:11:19;;;;;;;4.55;4.10;;;;;;;3.46;72.80;93189.84;4973065;28;20160;-82
2021/03/22 23:13:48;;;;;;;5.30;4.15;;;;;;;3.36;73.66;93180.16;4958362;28;20038;-82
2021/03/22 23:16:15;;;;;;;5.72;4.18;;;;;;;3.16;73.62;93137.56;4973037;28;20034;-82
2021/03/22 23:18:46;;;;;;;8.93;6.35;;;;;;;3.61;72.55;93197.69;4968866;28;20042;-82
2021/03/22 23:21:26;;;;;;;4.85;3.95;;;;;;;3.45;72.48;93172.59;4973557;28;20042;-82
2021/03/22 23:23:55;;;;;;;3.95;3.65;;;;;;;3.49;73.11;93186.69;4974575;28;20027;-82
2021/03/22 23:26:22;;;;;;;3.38;3.08;;;;;;;3.43;72.67;93180.69;4974346;28;20030;-82
2021/03/22 23:28:50;;;;;;;3.47;3.08;;;;;;;3.45;72.63;93201.31;4969875;28;20058;-82
2021/03/22 23:31:17;;;;;;;4.38;3.40;;;;;;;3.12;73.63;93158.19;4964025;28;20065;-82
2021/03/22 23:33:48;;;;;;;3.05;2.80;;;;;;;3.28;73.87;93170.19;4951449;28;20042;-81
2021/03/22 23:36:19;;;;;;;8.48;4.70;;;;;;;3.37;72.84;93176.47;4982496;28;20416;-82
2021/03/22 23:38:45;;;;;;;5.07;3.75;;;;;;;3.59;72.39;93198.97;4974236;28;20053;-81
2021/03/22 23:41:10;;;;;;;3.72;3.33;;;;;;;3.62;72.12;93199.25;4978401;28;20022;-81
2021/03/22 23:43:38;;;;;;;4.35;2.90;;;;;;;3.62;72.54;93203.69;4969228;28;20439;-81
2021/03/22 23:46:09;;;;;;;2.83;2.63;;;;;;;3.60;73.25;93203.16;4970128;28;20097;-81
2021/03/22 23:48:37;;;;;;;2.92;2.58;;;;;;;3.59;72.84;93191.94;4973917;28;20043;-81
2021/03/22 23:51:08;;;;;;;2.85;2.65;;;;;;;3.58;71.21;93197.41;4972451;28;20026;-82
2021/03/22 23:53:37;;;;;;;2.97;2.78;;;;;;;3.68;71.20;93203.44;4972451;28;20023;-81
2021/03/22 23:56:05;;;;;;;3.17;2.88;;;;;;;3.62;72.16;93198.44;4986137;28;20412;-81
2021/03/22 23:58:34;;;;;;;3.70;3.28;;;;;;;3.37;72.59;93170.50;4972693;28;20050;-81
